createdAt,value
2022-08-03T00:02:18.412Z,3.13
2022-08-03T00:04:46.768Z,2.83
2022-08-03T00:07:16.392Z,2.75
2022-08-03T00:09:44.697Z,3.15
2022-08-03T00:12:13.089Z,2.50
2022-08-03T00:14:41.572Z,2.70
2022-08-03T00:17:10.202Z,2.63
2022-08-03T00:19:38.475Z,2.60
2022-08-03T00:22:06.837Z,4.57
2022-08-03T00:24:37.173Z,3.08
2022-08-03T00:27:05.577Z,2.90
2022-08-03T00:29:33.867Z,3.85
2022-08-03T00:32:24.024Z,4.72
2022-08-03T00:34:57.292Z,2.80
2022-08-03T00:37:41.345Z,2.70
2022-08-03T00:40:13.262Z,2.78
2022-08-03T00:42:52.277Z,2.90
2022-08-03T00:45:20.577Z,2.78
2022-08-03T00:47:49.356Z,3.00
2022-08-03T00:50:18.152Z,3.05
2022-08-03T00:52:46.469Z,2.83
2022-08-03T00:55:16.343Z,3.65
2022-08-03T00:57:45.093Z,2.90
2022-08-03T01:00:14.578Z,3.95
2022-08-03T01:02:43.103Z,6.03
2022-08-03T01:05:11.743Z,2.83
2022-08-03T01:07:44.294Z,2.83
2022-08-03T01:10:18.081Z,2.72
2022-08-03T01:12:50.500Z,2.97
2022-08-03T01:15:22.571Z,2.92
2022-08-03T01:17:53.282Z,2.65
2022-08-03T01:20:22.713Z,2.47
2022-08-03T01:23:02.443Z,2.90
2022-08-03T01:25:40.739Z,2.53
2022-08-03T01:28:16.568Z,3.40
2022-08-03T01:30:47.426Z,2.80
2022-08-03T01:33:17.810Z,2.60
2022-08-03T01:35:48.156Z,2.40
2022-08-03T01:38:20.018Z,2.40
2022-08-03T01:40:48.603Z,2.60
2022-08-03T01:44:26.756Z,2.78
2022-08-03T01:46:09.139Z,5.10
2022-08-03T01:48:38.122Z,3.30
2022-08-03T01:51:06.632Z,2.75
2022-08-03T01:53:35.749Z,2.67
2022-08-03T01:56:05.445Z,3.00
2022-08-03T01:58:34.058Z,5.47
2022-08-03T02:01:02.939Z,2.30
2022-08-03T02:03:33.610Z,2.10
2022-08-03T02:06:59.942Z,2.63
2022-08-03T02:08:50.799Z,2.83
2022-08-03T02:11:19.131Z,3.22
2022-08-03T02:13:48.068Z,3.10
2022-08-03T02:16:16.333Z,3.10
2022-08-03T02:18:46.079Z,2.80
2022-08-03T02:21:55.836Z,2.65
2022-08-03T02:24:05.713Z,2.70
2022-08-03T02:26:34.349Z,3.40
2022-08-03T02:29:04.972Z,6.15
2022-08-03T02:31:35.239Z,3.58
2022-08-03T02:34:10.233Z,3.65
2022-08-03T02:36:39.770Z,3.10
2022-08-03T02:39:09.448Z,2.60
2022-08-03T02:41:38.998Z,3.50
2022-08-03T02:44:09.958Z,2.70
2022-08-03T02:46:39.699Z,4.80
2022-08-03T02:49:40.791Z,3.50
2022-08-03T02:51:59.646Z,4.30
2022-08-03T02:54:28.706Z,4.00
2022-08-03T02:56:58.829Z,2.92
2022-08-03T02:59:27.447Z,2.70
2022-08-03T03:01:56.815Z,3.30
2022-08-03T03:04:32.193Z,4.80
2022-08-03T03:07:01.973Z,3.15
2022-08-03T03:09:40.289Z,3.17
2022-08-03T03:12:11.580Z,2.90
2022-08-03T03:14:40.144Z,3.92
2022-08-03T03:17:10.948Z,5.75
2022-08-03T03:19:40.858Z,3.60
2022-08-03T03:22:10.165Z,3.97
2022-08-03T03:24:39.697Z,3.78
2022-08-03T03:27:08.010Z,4.13
2022-08-03T03:29:39.386Z,3.22
2022-08-03T03:32:09.233Z,3.33
2022-08-03T03:34:38.195Z,4.50
2022-08-03T03:37:07.838Z,3.60
2022-08-03T03:39:36.418Z,5.97
2022-08-03T03:42:04.720Z,4.18
2022-08-03T03:44:33.125Z,3.53
2022-08-03T03:47:01.455Z,3.50
2022-08-03T03:49:29.764Z,4.20
2022-08-03T03:51:58.057Z,10.52
2022-08-03T03:54:29.309Z,4.13
2022-08-03T03:56:57.998Z,4.10
2022-08-03T03:59:26.301Z,4.18
2022-08-03T04:01:59.292Z,4.03
2022-08-03T04:04:45.148Z,5.68
2022-08-03T04:07:31.137Z,9.23
2022-08-03T04:10:18.313Z,7.43
2022-08-03T04:12:49.979Z,6.43
2022-08-03T04:15:20.384Z,4.32
2022-08-03T04:17:48.918Z,7.07
2022-08-03T04:20:17.593Z,4.30
2022-08-03T04:22:46.321Z,8.00
2022-08-03T04:25:19.445Z,4.93
2022-08-03T04:28:21.035Z,8.00
2022-08-03T04:30:39.357Z,5.63
2022-08-03T04:33:08.311Z,5.18
2022-08-03T04:36:01.462Z,4.60
2022-08-03T04:38:27.061Z,6.25
2022-08-03T04:40:57.909Z,5.47
2022-08-03T04:43:27.093Z,7.05
2022-08-03T04:45:56.464Z,5.68
2022-08-03T04:48:24.761Z,5.47
2022-08-03T04:50:53.313Z,4.40
2022-08-03T04:53:25.839Z,5.07
2022-08-03T04:55:54.272Z,4.30
2022-08-03T04:58:25.341Z,5.10
2022-08-03T05:00:53.636Z,8.32
2022-08-03T05:03:24.104Z,6.65
2022-08-03T05:05:53.512Z,10.20
2022-08-03T05:08:30.713Z,4.90
2022-08-03T05:11:00.019Z,7.88
2022-08-03T05:13:29.876Z,5.60
2022-08-03T05:15:59.324Z,5.70
2022-08-03T05:18:27.583Z,6.88
2022-08-03T05:20:55.789Z,6.13
2022-08-03T05:23:24.106Z,5.57
2022-08-03T05:25:52.364Z,5.30
2022-08-03T05:28:20.650Z,6.32
2022-08-03T05:30:50.352Z,8.60
2022-08-03T05:33:18.608Z,6.43
2022-08-03T05:36:01.622Z,8.75
2022-08-03T05:38:34.053Z,4.90
2022-08-03T05:41:22.614Z,13.77
2022-08-03T05:43:52.124Z,6.93
2022-08-03T05:46:21.862Z,5.90
2022-08-03T05:48:50.136Z,8.30
2022-08-03T05:51:18.737Z,6.10
2022-08-03T05:53:47.050Z,6.55
2022-08-03T05:56:16.580Z,9.82
2022-08-03T05:58:46.259Z,6.65
2022-08-03T06:01:14.736Z,5.93
2022-08-03T06:03:44.346Z,7.65
2022-08-03T06:06:12.621Z,7.95
2022-08-03T06:08:40.909Z,6.18
2022-08-03T06:11:09.688Z,5.97
2022-08-03T06:13:38.053Z,9.63
2022-08-03T06:16:06.677Z,8.45
2022-08-03T06:18:35.076Z,6.88
2022-08-03T06:21:09.666Z,8.23
2022-08-03T06:23:54.335Z,5.82
2022-08-03T06:26:24.174Z,5.95
2022-08-03T06:28:54.212Z,5.40
2022-08-03T06:31:24.173Z,6.53
2022-08-03T06:34:32.354Z,9.40
2022-08-03T06:36:42.424Z,5.95
2022-08-03T06:39:10.729Z,6.28
2022-08-03T06:41:44.714Z,7.07
2022-08-03T06:44:13.553Z,6.28
2022-08-03T06:46:43.224Z,8.13
2022-08-03T06:49:11.542Z,7.72
2022-08-03T06:52:04.568Z,6.60
2022-08-03T06:54:32.890Z,4.05
2022-08-03T06:57:01.864Z,6.35
2022-08-03T07:00:08.342Z,9.38
2022-08-03T07:02:20.305Z,5.40
2022-08-03T07:04:48.884Z,7.20
2022-08-03T07:07:17.370Z,9.13
2022-08-03T07:09:56.587Z,6.88
2022-08-03T07:12:26.141Z,8.10
2022-08-03T07:14:58.167Z,8.80
2022-08-03T07:17:29.051Z,7.55
2022-08-03T07:19:57.780Z,4.40
2022-08-03T07:22:26.011Z,4.38
2022-08-03T07:24:55.748Z,6.20
2022-08-03T07:27:23.986Z,5.43
2022-08-03T07:29:52.325Z,8.25
2022-08-03T07:32:20.597Z,6.32
2022-08-03T07:34:48.900Z,7.03
2022-08-03T07:37:17.138Z,4.80
2022-08-03T07:39:46.789Z,4.22
2022-08-03T07:42:16.625Z,7.07
2022-08-03T07:44:44.982Z,4.88
2022-08-03T07:47:19.381Z,7.15
2022-08-03T07:49:51.106Z,6.72
2022-08-03T07:52:37.234Z,4.28
2022-08-03T07:55:06.460Z,6.95
2022-08-03T07:57:36.355Z,4.95
2022-08-03T08:00:05.419Z,4.95
2022-08-03T08:02:33.653Z,6.05
2022-08-03T08:05:05.554Z,5.38
2022-08-03T08:07:34.360Z,5.32
2022-08-03T08:10:02.647Z,5.70
2022-08-03T08:12:30.904Z,5.00
2022-08-03T08:15:00.492Z,7.00
2022-08-03T08:17:29.169Z,9.38
2022-08-03T08:19:57.889Z,5.18
2022-08-03T08:22:30.005Z,5.47
2022-08-03T08:24:59.349Z,3.63
2022-08-03T08:27:27.753Z,5.43
2022-08-03T08:30:00.566Z,3.42
2022-08-03T08:32:34.521Z,8.25
2022-08-03T08:35:02.793Z,6.63
2022-08-03T08:37:31.134Z,3.47
2022-08-03T08:39:59.620Z,6.50
2022-08-03T08:42:27.892Z,5.72
2022-08-03T08:44:56.762Z,4.25
2022-08-03T08:47:26.258Z,3.33
2022-08-03T08:50:09.279Z,5.38
2022-08-03T08:52:39.007Z,3.22
2022-08-03T08:55:08.304Z,4.35
2022-08-03T08:57:43.201Z,6.60
2022-08-03T09:00:14.019Z,4.60
2022-08-03T09:02:43.576Z,5.20
2022-08-03T09:05:14.091Z,3.83
2022-08-03T09:07:42.452Z,4.40
2022-08-03T09:10:13.594Z,7.40
2022-08-03T09:12:44.139Z,4.30
2022-08-03T09:15:19.536Z,4.28
2022-08-03T09:17:51.147Z,7.30
2022-08-03T09:20:21.971Z,5.88
2022-08-03T09:22:54.526Z,6.15
2022-08-03T09:25:28.592Z,4.93
2022-08-03T09:27:57.140Z,4.13
2022-08-03T09:30:33.646Z,4.68
2022-08-03T09:33:09.887Z,6.30
2022-08-03T09:35:59.037Z,4.45
2022-08-03T09:38:27.760Z,6.75
2022-08-03T09:41:00.051Z,5.68
2022-08-03T09:43:29.306Z,7.25
2022-08-03T09:46:04.570Z,5.15
2022-08-03T09:48:34.823Z,5.22
2022-08-03T09:51:13.593Z,5.82
2022-08-03T09:53:59.593Z,9.65
2022-08-03T09:56:39.348Z,5.78
2022-08-03T09:59:07.665Z,4.72
2022-08-03T10:01:36.388Z,4.95
2022-08-03T10:04:05.396Z,5.45
2022-08-03T10:06:35.222Z,7.65
2022-08-03T10:09:07.968Z,5.03
2022-08-03T10:11:41.228Z,5.82
2022-08-03T10:14:18.613Z,8.40
2022-08-03T10:16:47.540Z,4.15
2022-08-03T10:19:16.134Z,3.55
2022-08-03T10:21:52.330Z,3.45
2022-08-03T10:24:25.942Z,9.48
2022-08-03T10:26:55.347Z,6.05
2022-08-03T10:29:24.926Z,4.85
2022-08-03T10:31:58.094Z,11.75
2022-08-03T10:34:28.864Z,3.33
2022-08-03T10:37:00.573Z,4.25
2022-08-03T10:39:30.289Z,5.78
2022-08-03T10:42:00.058Z,7.07
2022-08-03T10:44:34.457Z,4.47
2022-08-03T10:47:02.875Z,3.65
2022-08-03T10:49:34.526Z,6.43
2022-08-03T10:52:11.375Z,10.57
2022-08-03T10:55:07.395Z,8.10
2022-08-03T10:57:50.053Z,5.22
2022-08-03T11:00:19.722Z,5.15
2022-08-03T11:03:03.975Z,4.63
2022-08-03T11:05:33.069Z,4.50
2022-08-03T11:08:35.697Z,7.45
2022-08-03T11:11:26.445Z,5.15
2022-08-03T11:13:59.023Z,5.07
2022-08-03T11:16:28.605Z,3.13
2022-08-03T11:19:00.674Z,6.97
2022-08-03T11:21:47.725Z,3.65
2022-08-03T11:24:30.874Z,5.15
2022-08-03T11:27:13.988Z,4.78
2022-08-03T11:29:56.656Z,6.55
2022-08-03T11:32:56.235Z,6.28
2022-08-03T11:35:25.399Z,4.80
2022-08-03T11:38:05.328Z,8.52
2022-08-03T11:40:37.827Z,6.13
2022-08-03T11:43:06.554Z,7.05
2022-08-03T11:45:36.527Z,5.57
2022-08-03T11:48:14.913Z,8.05
2022-08-03T11:50:45.337Z,4.38
2022-08-03T11:53:17.745Z,7.70
2022-08-03T11:55:48.820Z,10.30
2022-08-03T11:59:18.697Z,7.72
2022-08-03T12:01:08.733Z,7.53
2022-08-03T12:03:37.393Z,9.52
2022-08-03T12:06:10.564Z,5.97
2022-08-03T12:08:38.858Z,7.20
2022-08-03T12:11:08.784Z,5.50
2022-08-03T12:14:43.925Z,10.65
2022-08-03T12:16:42.916Z,7.65
2022-08-03T12:19:12.420Z,8.10
2022-08-03T12:21:57.402Z,6.65
2022-08-03T12:24:28.560Z,9.60
2022-08-03T12:26:59.965Z,10.48
2022-08-03T12:29:28.589Z,8.45
2022-08-03T12:31:58.465Z,6.60
2022-08-03T12:34:27.276Z,10.30
2022-08-03T12:37:00.100Z,7.97
2022-08-03T12:39:31.080Z,9.85
2022-08-03T12:41:59.565Z,7.18
2022-08-03T12:44:31.946Z,6.70
2022-08-03T12:47:02.366Z,7.47
2022-08-03T12:49:30.749Z,10.18
2022-08-03T12:52:03.901Z,7.38
2022-08-03T12:54:36.050Z,8.15
2022-08-03T12:57:05.303Z,6.90
2022-08-03T12:59:35.303Z,10.18
2022-08-03T13:02:16.422Z,8.85
2022-08-03T13:04:46.353Z,10.27
2022-08-03T13:07:15.443Z,8.25
2022-08-03T13:09:44.386Z,5.18
2022-08-03T13:12:13.438Z,7.25
2022-08-03T13:14:41.930Z,9.23
2022-08-03T13:17:11.652Z,9.38
2022-08-03T13:19:40.186Z,7.43
2022-08-03T13:22:15.643Z,9.48
2022-08-03T13:24:44.722Z,7.78
2022-08-03T13:28:02.422Z,6.85
2022-08-03T13:30:01.574Z,10.75
2022-08-03T13:32:31.246Z,8.73
2022-08-03T13:34:59.564Z,9.35
2022-08-03T13:37:28.209Z,9.13
2022-08-03T13:39:59.515Z,6.88
2022-08-03T13:42:31.420Z,7.10
2022-08-03T13:44:59.949Z,6.78
2022-08-03T13:47:28.552Z,6.18
2022-08-03T13:50:01.012Z,8.50
2022-08-03T13:52:30.861Z,7.32
2022-08-03T13:54:59.815Z,8.38
2022-08-03T13:58:04.544Z,7.47
2022-08-03T14:00:27.266Z,6.70
2022-08-03T14:03:06.563Z,5.30
2022-08-03T14:05:42.629Z,9.02
2022-08-03T14:08:11.454Z,6.03
2022-08-03T14:10:40.464Z,10.45
2022-08-03T14:13:08.874Z,6.15
2022-08-03T14:15:38.544Z,6.55
2022-08-03T14:18:15.899Z,5.47
2022-08-03T14:21:03.364Z,8.30
2022-08-03T14:23:33.725Z,6.43
2022-08-03T14:26:02.079Z,9.02
2022-08-03T14:28:30.358Z,6.03
2022-08-03T14:30:58.730Z,4.93
2022-08-03T14:33:28.314Z,6.32
2022-08-03T14:35:58.062Z,5.68
2022-08-03T14:38:26.344Z,6.97
2022-08-03T14:40:54.651Z,6.82
2022-08-03T14:43:22.976Z,4.97
2022-08-03T14:45:53.285Z,5.63
2022-08-03T14:50:27.857Z,4.25
2022-08-03T14:51:11.767Z,6.70
2022-08-03T14:53:40.037Z,4.25
2022-08-03T14:56:10.753Z,4.60
2022-08-03T14:58:39.599Z,6.03
2022-08-03T15:02:04.925Z,4.97
2022-08-03T15:03:56.820Z,4.65
2022-08-03T15:06:26.462Z,4.82
2022-08-03T15:09:21.169Z,6.60
2022-08-03T15:11:43.540Z,8.05
2022-08-03T15:14:13.488Z,4.20
2022-08-03T15:16:43.222Z,5.00
2022-08-03T15:20:00.301Z,5.38
2022-08-03T15:22:01.297Z,6.53
2022-08-03T15:24:30.163Z,9.55
2022-08-03T15:26:58.452Z,6.90
2022-08-03T15:30:05.231Z,5.85
2022-08-03T15:32:15.060Z,7.38
2022-08-03T15:34:50.498Z,4.97
2022-08-03T15:37:20.899Z,6.85
2022-08-03T15:39:59.176Z,4.85
2022-08-03T15:42:28.814Z,6.18
2022-08-03T15:44:57.093Z,3.05
2022-08-03T15:47:25.556Z,4.88
2022-08-03T15:49:53.802Z,6.65
2022-08-03T15:52:23.446Z,10.50
2022-08-03T15:54:51.723Z,4.05
2022-08-03T15:57:20.353Z,3.67
2022-08-03T15:59:48.824Z,6.28
2022-08-03T16:02:17.339Z,3.67
2022-08-03T16:04:45.614Z,5.50
2022-08-03T16:07:15.684Z,3.05
2022-08-03T16:09:45.448Z,5.75
2022-08-03T16:12:16.133Z,4.30
2022-08-03T16:14:52.308Z,6.82
2022-08-03T16:17:21.262Z,6.75
2022-08-03T16:19:49.880Z,10.35
2022-08-03T16:22:19.674Z,5.88
2022-08-03T16:24:52.598Z,4.00
2022-08-03T16:27:37.423Z,7.13
2022-08-03T16:30:10.421Z,6.13
2022-08-03T16:32:39.821Z,5.85
2022-08-03T16:35:08.903Z,5.25
2022-08-03T16:37:39.057Z,5.85
2022-08-03T16:40:17.373Z,7.93
2022-08-03T16:42:47.972Z,6.43
2022-08-03T16:45:16.312Z,8.27
2022-08-03T16:47:44.577Z,6.28
2022-08-03T16:50:19.069Z,7.43
2022-08-03T16:52:48.442Z,6.60
2022-08-03T16:55:48.868Z,6.95
2022-08-03T16:58:07.492Z,10.15
2022-08-03T17:00:41.194Z,7.03
2022-08-03T17:03:18.666Z,7.75
2022-08-03T17:05:49.726Z,10.07
2022-08-03T17:08:26.153Z,7.55
2022-08-03T17:10:56.795Z,5.45
2022-08-03T17:13:38.833Z,6.68
2022-08-03T17:16:09.148Z,11.02
2022-08-03T17:18:42.312Z,5.40
2022-08-03T17:21:17.336Z,7.75
2022-08-03T17:23:47.832Z,7.53
2022-08-03T17:26:21.985Z,6.05
2022-08-03T17:28:57.455Z,11.38
2022-08-03T17:31:31.142Z,9.35
2022-08-03T17:34:01.410Z,8.65
2022-08-03T17:39:30.895Z,7.65
2022-08-03T17:42:29.513Z,11.73
2022-08-03T17:44:57.694Z,11.88
2022-08-03T17:47:29.145Z,11.32
2022-08-03T17:50:25.404Z,13.07
2022-08-03T17:52:59.052Z,13.07
2022-08-03T17:55:55.336Z,8.30
2022-08-03T17:58:25.124Z,7.82
2022-08-03T18:01:57.099Z,11.95
2022-08-03T18:04:11.027Z,11.98
2022-08-03T18:06:55.528Z,12.65
2022-08-03T18:10:03.350Z,15.23
2022-08-03T18:12:15.598Z,13.23
2022-08-03T18:14:57.658Z,11.88
2022-08-03T18:17:55.683Z,11.55
2022-08-03T18:23:07.892Z,14.02
2022-08-03T18:25:45.279Z,11.00
2022-08-03T18:28:18.691Z,11.23
2022-08-03T18:30:53.708Z,8.35
2022-08-03T18:34:17.830Z,7.63
2022-08-03T18:39:02.514Z,9.75
2022-08-03T18:41:34.017Z,9.98
2022-08-03T18:44:08.469Z,8.65
2022-08-03T18:46:47.984Z,5.95
2022-08-03T18:49:22.659Z,7.97
2022-08-03T18:51:54.989Z,6.22
2022-08-03T18:54:51.798Z,5.60
2022-08-03T18:57:21.540Z,7.10
2022-08-03T19:00:04.533Z,5.60
2022-08-03T19:02:37.033Z,8.18
2022-08-03T19:05:08.083Z,6.18
2022-08-03T19:07:36.819Z,8.55
2022-08-03T19:10:06.648Z,7.28
2022-08-03T19:12:40.368Z,10.98
2022-08-03T19:15:12.904Z,7.90
2022-08-03T19:17:50.212Z,7.93
2022-08-03T19:20:22.858Z,8.20
2022-08-03T19:22:54.679Z,17.20
2022-08-03T19:25:35.227Z,5.88
2022-08-03T19:28:06.282Z,6.60
2022-08-03T19:30:55.252Z,9.50
2022-08-03T19:33:29.927Z,9.00
2022-08-03T19:35:59.044Z,6.90
2022-08-03T19:38:29.815Z,6.93
2022-08-03T19:41:00.149Z,10.05
2022-08-03T19:43:33.044Z,9.48
2022-08-03T19:46:18.067Z,6.40
2022-08-03T19:49:02.943Z,9.15
2022-08-03T19:52:00.723Z,8.32
2022-08-03T19:54:29.845Z,6.47
2022-08-03T19:57:01.912Z,6.68
2022-08-03T19:59:30.839Z,15.20
2022-08-03T20:01:59.209Z,7.32
2022-08-03T20:04:27.635Z,7.18
2022-08-03T20:07:00.220Z,6.72
2022-08-03T20:09:30.691Z,3.50
2022-08-03T20:11:59.142Z,8.38
2022-08-03T20:14:27.718Z,7.47
2022-08-03T20:16:57.556Z,10.25
2022-08-03T20:19:32.400Z,7.95
2022-08-03T20:22:02.839Z,9.75
2022-08-03T20:24:35.989Z,6.82
2022-08-03T20:27:07.958Z,9.02
2022-08-03T20:30:06.400Z,8.50
2022-08-03T20:32:27.039Z,7.00
2022-08-03T20:34:55.452Z,4.82
2022-08-03T20:37:25.241Z,4.72
2022-08-03T20:39:54.325Z,7.60
2022-08-03T20:42:22.896Z,7.53
2022-08-03T20:44:58.940Z,7.43
2022-08-03T20:47:35.887Z,7.15
2022-08-03T20:50:07.484Z,5.35
2022-08-03T20:52:43.997Z,8.65
2022-08-03T20:55:18.618Z,8.68
2022-08-03T20:58:06.918Z,5.60
2022-08-03T21:00:35.288Z,4.47
2022-08-03T21:03:03.861Z,5.57
2022-08-03T21:05:48.250Z,6.03
2022-08-03T21:08:23.025Z,12.57
2022-08-03T21:10:51.868Z,7.25
2022-08-03T21:12:57.650Z,9.60
2022-08-03T21:12:58.649Z,7.35
2022-08-03T21:13:25.105Z,5.70
2022-08-03T21:16:12.868Z,10.07
2022-08-03T21:18:45.083Z,20.77
2022-08-03T21:21:15.535Z,23.70
2022-08-03T21:23:48.766Z,42.42
2022-08-03T21:26:18.818Z,22.60
2022-08-03T21:28:47.684Z,19.42
2022-08-03T21:31:24.671Z,16.75
2022-08-03T21:33:55.558Z,13.25
2022-08-03T21:36:23.833Z,7.35
2022-08-03T21:38:56.597Z,7.97
2022-08-03T21:41:25.952Z,8.23
2022-08-03T21:43:54.236Z,8.57
2022-08-03T21:46:23.626Z,5.75
2022-08-03T21:48:55.006Z,11.40
2022-08-03T21:51:25.431Z,4.20
2022-08-03T21:54:00.267Z,8.25
2022-08-03T21:56:33.846Z,9.88
2022-08-03T21:59:04.931Z,4.82
2022-08-03T22:01:35.337Z,9.60
2022-08-03T22:04:06.903Z,6.45
2022-08-03T22:06:35.552Z,7.93
2022-08-03T22:09:05.856Z,7.35
2022-08-03T22:11:35.611Z,5.85
2022-08-03T22:14:04.350Z,8.02
2022-08-03T22:16:32.640Z,7.35
2022-08-03T22:19:00.939Z,6.18
2022-08-03T22:21:36.401Z,6.13
2022-08-03T22:24:06.935Z,3.85
2022-08-03T22:26:37.323Z,8.60
2022-08-03T22:29:08.834Z,5.80
2022-08-03T22:31:58.126Z,8.10
2022-08-03T22:34:27.690Z,8.60
2022-08-03T22:37:00.147Z,9.82
2022-08-03T22:39:30.888Z,5.65
2022-08-03T22:41:59.747Z,7.07
2022-08-03T22:44:28.243Z,8.68
2022-08-03T22:46:57.230Z,7.07
2022-08-03T22:49:25.627Z,10.52
2022-08-03T22:51:53.889Z,8.90
2022-08-03T22:54:22.663Z,7.88
2022-08-03T22:56:52.956Z,6.18
2022-08-03T22:59:41.437Z,6.25
2022-08-03T23:02:20.086Z,8.25
2022-08-03T23:04:51.582Z,8.25
2022-08-03T23:07:22.772Z,7.72
2022-08-03T23:09:51.450Z,7.20
2022-08-03T23:12:21.296Z,6.07
2022-08-03T23:14:54.085Z,5.90
2022-08-03T23:17:24.353Z,8.10
2022-08-03T23:19:53.699Z,5.80
2022-08-03T23:22:29.372Z,4.85
2022-08-03T23:24:59.322Z,6.70
2022-08-03T23:27:29.620Z,4.63
2022-08-03T23:29:59.278Z,7.25
2022-08-03T23:32:27.818Z,7.03
2022-08-03T23:35:15.495Z,5.55
2022-08-03T23:38:04.518Z,7.38
2022-08-03T23:40:33.341Z,11.27
2022-08-03T23:43:03.281Z,6.10
2022-08-03T23:45:36.653Z,6.05
2022-08-03T23:48:04.940Z,5.75
2022-08-03T23:50:36.898Z,6.55
2022-08-03T23:53:09.863Z,8.05
2022-08-03T23:55:48.870Z,6.78
2022-08-03T23:58:24.624Z,6.28
